This is the latest recevied weather packets stored in our database for station/object N5BTB-10. If no packets are shown the sender has not sent any weather packets the latest 10 day(s).
| Time | Temp. | Humidity | Pressure | Rain* | Wind** | Luminosity | Snow |
|---|---|---|---|---|---|---|---|
| 1788134405 | 67° F | 68% | - | 0 in | - | - | - |
| 1788130806 | 67° F | 65% | - | 0 in | - | - | - |
| 1788127206 | 67° F | 64% | - | 0 in | - | - | - |
| 1788123606 | 66° F | 62% | - | 0 in | - | - | - |
| 1788120006 | 65° F | 66% | - | 0 in | - | - | - |
| 1788116406 | 64° F | 60% | - | 0 in | - | - | - |
| 1788112805 | 61° F | 70% | - | 0 in | - | - | - |
| 1788109205 | 58° F | 79% | - | 0 in | - | - | - |
| 1788105605 | 54° F | 88% | - | 0 in | - | - | - |
| 1788102005 | 52° F | 91% | - | 0 in | - | - | - |
| 1788098405 | 52° F | 92% | - | 0 in | - | - | - |
| 1788094805 | 52° F | 92% | - | 0 in | - | - | - |
| 1788091205 | 51° F | 92% | - | 0 in | - | - | - |
| 1788087605 | 51° F | 91% | - | 0 in | - | - | - |
| 1788084005 | 50° F | 89% | - | 0 in | - | - | - |
| 1788080405 | 51° F | 88% | - | 0 in | - | - | - |
| 1788076805 | 53° F | 88% | - | 0 in | - | - | - |
| 1788073205 | 53° F | 87% | - | 0 in | - | - | - |
| 1788069606 | 53° F | 84% | - | 0 in | - | - | - |
| 1788066006 | 55° F | 82% | - | 0 in | - | - | - |
| 1788062406 | 57° F | 79% | - | 0 in | - | - | - |
| 1788058806 | 59° F | 74% | - | 0 in | - | - | - |
| 1788055205 | 62° F | 70% | - | 0 in | - | - | - |
| 1788051605 | 63° F | 68% | - | 0 in | - | - | - |
| 1788048005 | 63° F | 67% | - | 0 in | - | - | - |
* Rain latest hour (hover to see other rain measurements)
** Current wind speed in m/s (hover to see current wind gust speed)